createdAt,value
2023-03-11T00:00:13.689Z,99853.22
2023-03-11T00:02:41.021Z,99849.47
2023-03-11T00:05:08.722Z,99864.06
2023-03-11T00:07:35.189Z,99858.41
2023-03-11T00:10:01.649Z,99869.00
2023-03-11T00:12:28.049Z,99870.53
2023-03-11T00:14:54.431Z,99874.69
2023-03-11T00:17:20.808Z,99884.06
2023-03-11T00:19:47.181Z,99893.88
2023-03-11T00:22:13.680Z,99895.38
2023-03-11T00:24:40.094Z,99899.88
2023-03-11T00:27:06.860Z,99905.91
2023-03-11T00:29:33.235Z,99902.91
2023-03-11T00:31:59.664Z,99899.16
2023-03-11T00:34:26.007Z,99907.41
2023-03-11T00:36:52.392Z,99923.97
2023-03-11T00:39:18.810Z,99920.25
2023-03-11T00:41:45.224Z,99925.16
2023-03-11T00:44:12.482Z,99920.19
2023-03-11T00:46:38.872Z,99939.75
2023-03-11T00:49:06.047Z,99946.53
2023-03-11T00:51:34.183Z,99948.81
2023-03-11T00:54:01.283Z,99957.84
2023-03-11T00:56:27.839Z,99948.44
2023-03-11T00:58:54.200Z,99966.09
2023-03-11T01:01:21.173Z,99962.00
2023-03-11T01:03:47.563Z,99965.75
2023-03-11T01:06:14.024Z,99957.09
2023-03-11T01:08:40.760Z,99966.50
2023-03-11T01:11:07.887Z,99969.13
2023-03-11T01:13:35.028Z,99973.66
2023-03-11T01:16:01.840Z,99981.88
2023-03-11T01:18:28.970Z,99993.97
2023-03-11T01:20:55.382Z,99995.00
2023-03-11T01:23:22.261Z,100004.13
2023-03-11T01:25:48.880Z,100009.69
2023-03-11T01:28:15.234Z,100014.94
2023-03-11T01:30:42.738Z,100008.19
2023-03-11T01:33:14.715Z,100002.84
2023-03-11T01:35:42.269Z,100002.91
2023-03-11T01:38:09.866Z,100009.28
2023-03-11T01:40:49.028Z,100010.06
2023-03-11T01:43:37.253Z,100020.22
2023-03-11T01:46:26.407Z,100029.91
2023-03-11T01:48:57.958Z,100036.75
2023-03-11T01:51:29.445Z,100034.38
2023-03-11T01:53:57.515Z,100041.94
2023-03-11T01:56:24.451Z,100044.22
2023-03-11T01:58:52.661Z,100036.63
2023-03-11T02:01:20.663Z,100043.81
2023-03-11T02:03:47.514Z,100058.22
2023-03-11T02:06:17.456Z,100060.09
2023-03-11T02:08:44.183Z,100061.59
2023-03-11T02:11:14.985Z,100068.19
2023-03-11T02:13:41.943Z,100066.66
2023-03-11T02:16:08.838Z,100078.75
2023-03-11T02:18:36.509Z,100075.66
2023-03-11T02:21:16.095Z,100085.03
2023-03-11T02:23:52.458Z,100083.84
2023-03-11T02:27:01.228Z,100087.34
2023-03-11T02:29:28.689Z,100092.66
2023-03-11T02:31:56.429Z,100100.94
2023-03-11T02:34:31.329Z,100105.81
2023-03-11T02:36:59.169Z,100095.25
2023-03-11T02:39:40.635Z,100108.97
2023-03-11T02:42:17.745Z,100106.13
2023-03-11T02:44:46.494Z,100119.69
2023-03-11T02:47:13.222Z,100110.22
2023-03-11T02:49:39.801Z,100121.09
2023-03-11T02:52:06.695Z,100114.22
2023-03-11T02:54:33.580Z,100123.19
2023-03-11T02:56:59.963Z,100120.94
2023-03-11T02:59:26.311Z,100116.88
2023-03-11T03:01:52.712Z,100121.00
2023-03-11T03:04:19.159Z,100120.22
2023-03-11T03:06:45.568Z,100126.13
2023-03-11T03:09:12.086Z,100121.19
2023-03-11T03:11:38.466Z,100128.75
2023-03-11T03:14:04.844Z,100128.41
2023-03-11T03:16:31.369Z,100135.16
2023-03-11T03:18:57.815Z,100136.59
2023-03-11T03:21:24.185Z,100138.66
2023-03-11T03:23:50.528Z,100147.97
2023-03-11T03:26:16.982Z,100134.81
2023-03-11T03:28:43.370Z,100147.81
2023-03-11T03:31:10.716Z,100150.13
2023-03-11T03:33:38.285Z,100156.91
2023-03-11T03:36:13.092Z,100161.16
2023-03-11T03:38:39.800Z,100154.09
2023-03-11T03:41:06.189Z,100164.19
2023-03-11T03:43:32.629Z,100169.88
2023-03-11T03:46:01.308Z,100167.72
2023-03-11T03:48:28.536Z,100167.75
2023-03-11T03:50:55.519Z,100171.13
2023-03-11T03:53:22.149Z,100177.34
2023-03-11T03:55:50.720Z,100171.91
2023-03-11T03:58:17.316Z,100184.69
2023-03-11T04:00:43.697Z,100178.19
2023-03-11T04:03:10.175Z,100178.78
2023-03-11T04:05:36.648Z,100189.44
2023-03-11T04:08:03.116Z,100198.84
2023-03-11T04:10:29.508Z,100195.50
2023-03-11T04:12:55.892Z,100207.72
2023-03-11T04:15:22.275Z,100220.41
2023-03-11T04:17:48.652Z,100220.31
2023-03-11T04:20:15.041Z,100223.47
2023-03-11T04:22:41.440Z,100230.97
2023-03-11T04:25:08.264Z,100236.91
2023-03-11T04:27:34.659Z,100249.84
2023-03-11T04:30:01.028Z,100245.16
2023-03-11T04:32:27.750Z,100232.75
2023-03-11T04:34:54.112Z,100247.44
2023-03-11T04:37:20.504Z,100252.66
2023-03-11T04:39:46.887Z,100253.09
2023-03-11T04:42:14.056Z,100261.66
2023-03-11T04:44:40.480Z,100254.00
2023-03-11T04:47:06.884Z,100250.38
2023-03-11T04:49:33.318Z,100251.28
2023-03-11T04:51:59.712Z,100261.78
2023-03-11T04:54:26.143Z,100261.00
2023-03-11T04:56:52.550Z,100268.44
2023-03-11T04:59:18.905Z,100275.22
2023-03-11T05:01:45.319Z,100273.34
2023-03-11T05:04:12.815Z,100278.25
2023-03-11T05:06:39.244Z,100289.88
2023-03-11T05:09:05.911Z,100281.13
2023-03-11T05:11:32.280Z,100282.78
2023-03-11T05:13:58.722Z,100286.41
2023-03-11T05:16:25.128Z,100288.56
2023-03-11T05:18:51.561Z,100290.09
2023-03-11T05:21:17.939Z,100299.84
2023-03-11T05:23:45.295Z,100306.38
2023-03-11T05:26:12.317Z,100306.19
2023-03-11T05:28:38.757Z,100305.88
2023-03-11T05:31:09.046Z,100317.81
2023-03-11T05:33:35.871Z,100309.72
2023-03-11T05:36:06.378Z,100314.66
2023-03-11T05:38:32.790Z,100327.53
2023-03-11T05:40:59.153Z,100328.03
2023-03-11T05:43:25.536Z,100332.97
2023-03-11T05:45:51.907Z,100328.69
2023-03-11T05:48:18.320Z,100342.47
2023-03-11T05:50:44.742Z,100340.00
2023-03-11T05:53:11.109Z,100344.47
2023-03-11T05:55:37.756Z,100350.63
2023-03-11T05:58:04.213Z,100354.47
2023-03-11T06:00:30.631Z,100354.03
2023-03-11T06:02:57.025Z,100357.38
2023-03-11T06:05:23.741Z,100359.25
2023-03-11T06:07:50.140Z,100362.75
2023-03-11T06:10:16.731Z,100369.50
2023-03-11T06:12:43.161Z,100372.09
2023-03-11T06:15:10.958Z,100375.31
2023-03-11T06:17:37.359Z,100382.03
2023-03-11T06:20:05.805Z,100394.06
2023-03-11T06:22:32.181Z,100392.81
2023-03-11T06:24:58.579Z,100399.84
2023-03-11T06:27:25.007Z,100412.63
2023-03-11T06:29:54.670Z,100412.25
2023-03-11T06:32:21.098Z,100410.25
2023-03-11T06:34:51.705Z,100429.22
2023-03-11T06:37:18.923Z,100433.16
2023-03-11T06:39:45.315Z,100430.56
2023-03-11T06:42:11.902Z,100426.78
2023-03-11T06:44:38.737Z,100441.06
2023-03-11T06:47:05.199Z,100444.38
2023-03-11T06:49:31.644Z,100445.25
2023-03-11T06:51:58.030Z,100449.81
2023-03-11T06:54:24.397Z,100456.41
2023-03-11T06:56:50.789Z,100463.84
2023-03-11T06:59:17.410Z,100471.97
2023-03-11T07:01:43.865Z,100483.63
2023-03-11T07:04:10.702Z,100470.28
2023-03-11T07:06:37.120Z,100475.13
2023-03-11T07:09:03.617Z,100482.38
2023-03-11T07:11:30.048Z,100486.66
2023-03-11T07:13:56.474Z,100487.41
2023-03-11T07:16:25.012Z,100508.81
2023-03-11T07:18:55.070Z,100512.31
2023-03-11T07:21:22.865Z,100513.84
2023-03-11T07:23:55.920Z,100516.13
2023-03-11T07:26:23.228Z,100516.75
2023-03-11T07:28:50.071Z,100531.13
2023-03-11T07:31:18.518Z,100527.13
2023-03-11T07:33:45.599Z,100523.00
2023-03-11T07:36:14.783Z,100535.13
2023-03-11T07:38:41.937Z,100534.16
2023-03-11T07:41:11.124Z,100537.28
2023-03-11T07:43:38.121Z,100551.56
2023-03-11T07:46:05.629Z,100554.13
2023-03-11T07:48:32.098Z,100543.03
2023-03-11T07:51:03.320Z,100561.41
2023-03-11T07:53:29.774Z,100555.88
2023-03-11T07:55:57.290Z,100558.94
2023-03-11T07:58:23.742Z,100558.13
2023-03-11T08:00:51.592Z,100565.88
2023-03-11T08:03:18.479Z,100563.81
2023-03-11T08:05:44.848Z,100575.47
2023-03-11T08:08:11.270Z,100587.56
2023-03-11T08:10:38.390Z,100589.28
2023-03-11T08:13:04.866Z,100599.28
2023-03-11T08:15:31.494Z,100600.69
2023-03-11T08:17:58.041Z,100596.41
2023-03-11T08:20:24.519Z,100599.16
2023-03-11T08:22:58.118Z,100609.84
2023-03-11T08:25:25.367Z,100620.75
2023-03-11T08:27:51.776Z,100615.88
2023-03-11T08:30:18.461Z,100624.34
2023-03-11T08:32:44.889Z,100630.19
2023-03-11T08:35:11.456Z,100635.19
2023-03-11T08:37:38.069Z,100626.03
2023-03-11T08:40:05.126Z,100643.09
2023-03-11T08:42:31.564Z,100628.34
2023-03-11T08:44:57.949Z,100634.47
2023-03-11T08:47:24.346Z,100636.75
2023-03-11T08:49:50.716Z,100636.53
2023-03-11T08:52:17.102Z,100638.22
2023-03-11T08:54:43.466Z,100644.94
2023-03-11T08:57:09.860Z,100657.38
2023-03-11T08:59:36.560Z,100648.09
2023-03-11T09:02:03.246Z,100653.50
2023-03-11T09:04:29.673Z,100656.59
2023-03-11T09:06:56.088Z,100658.81
2023-03-11T09:09:22.475Z,100652.78
2023-03-11T09:11:49.332Z,100667.91
2023-03-11T09:14:15.898Z,100667.53
2023-03-11T09:16:42.283Z,100663.00
2023-03-11T09:19:08.908Z,100673.16
2023-03-11T09:21:36.161Z,100672.81
2023-03-11T09:24:04.233Z,100677.72
2023-03-11T09:26:31.562Z,100670.94
2023-03-11T09:28:57.999Z,100679.63
2023-03-11T09:31:24.509Z,100675.81
2023-03-11T09:33:52.774Z,100675.44
2023-03-11T09:36:20.701Z,100685.28
2023-03-11T09:38:47.518Z,100674.28
2023-03-11T09:41:16.926Z,100676.22
2023-03-11T09:43:54.966Z,100682.28
2023-03-11T09:46:43.314Z,100678.50
2023-03-11T09:49:17.337Z,100678.53
2023-03-11T09:51:47.709Z,100684.94
2023-03-11T09:54:14.231Z,100681.44
2023-03-11T09:56:44.434Z,100687.47
2023-03-11T09:59:18.905Z,100689.75
2023-03-11T10:01:47.043Z,100686.72
2023-03-11T10:04:17.077Z,100689.09
2023-03-11T10:06:45.730Z,100693.63
2023-03-11T10:09:12.084Z,100693.25
2023-03-11T10:12:09.626Z,100696.66
2023-03-11T10:14:54.341Z,100701.97
2023-03-11T10:17:42.502Z,100702.72
2023-03-11T10:20:22.712Z,100707.22
2023-03-11T10:23:24.630Z,100704.94
2023-03-11T10:26:03.411Z,100709.41
2023-03-11T10:28:37.047Z,100703.78
2023-03-11T10:31:14.465Z,100714.00
2023-03-11T10:33:48.009Z,100710.94
2023-03-11T10:36:24.137Z,100710.19
2023-03-11T10:38:52.712Z,100716.19
2023-03-11T10:41:44.188Z,100724.38
2023-03-11T10:44:28.410Z,100716.16
2023-03-11T10:46:55.098Z,100721.06
2023-03-11T10:49:21.604Z,100723.28
2023-03-11T10:51:50.807Z,100716.41
2023-03-11T10:54:43.938Z,100716.09
2023-03-11T10:57:22.023Z,100719.97
2023-03-11T10:59:50.824Z,100732.41
2023-03-11T11:02:32.480Z,100720.75
2023-03-11T11:05:08.508Z,100721.50
2023-03-11T11:07:37.409Z,100719.97
2023-03-11T11:10:18.263Z,100732.66
2023-03-11T11:13:18.019Z,100731.84
2023-03-11T11:16:18.922Z,100739.06
2023-03-11T11:18:49.260Z,100739.94
2023-03-11T11:21:16.267Z,100739.31
2023-03-11T11:23:47.281Z,100746.63
2023-03-11T11:26:17.378Z,100732.00
2023-03-11T11:28:44.353Z,100746.22
2023-03-11T11:31:25.237Z,100731.81
2023-03-11T11:33:55.940Z,100735.66
2023-03-11T11:36:27.813Z,100731.84
2023-03-11T11:38:54.883Z,100728.50
2023-03-11T11:41:23.822Z,100726.69
2023-03-11T11:44:03.623Z,100727.38
2023-03-11T11:46:59.293Z,100725.19
2023-03-11T11:49:28.758Z,100721.41
2023-03-11T11:51:59.892Z,100721.03
2023-03-11T11:54:33.456Z,100717.53
2023-03-11T11:57:01.521Z,100718.28
2023-03-11T11:59:27.968Z,100725.56
2023-03-11T12:02:03.792Z,100727.50
2023-03-11T12:04:37.877Z,100724.13
2023-03-11T12:07:12.943Z,100722.88
2023-03-11T12:09:57.759Z,100741.66
2023-03-11T12:12:38.705Z,100729.03
2023-03-11T12:15:24.039Z,100722.25
2023-03-11T12:17:52.770Z,100722.47
2023-03-11T12:20:39.217Z,100729.03
2023-03-11T12:23:17.511Z,100730.97
2023-03-11T12:26:16.230Z,100735.81
2023-03-11T12:28:48.112Z,100724.63
2023-03-11T12:31:14.688Z,100737.50
2023-03-11T12:33:44.288Z,100738.44
2023-03-11T12:36:32.085Z,100734.38
2023-03-11T12:39:00.053Z,100734.91
2023-03-11T12:41:28.951Z,100736.91
2023-03-11T12:44:00.848Z,100742.03
2023-03-11T12:47:06.357Z,100739.75
2023-03-11T12:49:36.360Z,100741.78
2023-03-11T12:52:13.315Z,100743.34
2023-03-11T12:54:48.181Z,100745.53
2023-03-11T12:57:17.827Z,100745.78
2023-03-11T13:00:08.014Z,100743.00
2023-03-11T13:03:11.288Z,100736.41
2023-03-11T13:06:10.741Z,100740.66
2023-03-11T13:08:49.324Z,100746.53
2023-03-11T13:11:34.002Z,100749.88
2023-03-11T13:14:16.323Z,100741.09
2023-03-11T13:16:43.950Z,100741.38
2023-03-11T13:19:32.225Z,100749.44
2023-03-11T13:22:00.090Z,100755.16
2023-03-11T13:24:27.059Z,100761.66
2023-03-11T13:26:59.666Z,100755.63
2023-03-11T13:29:47.722Z,100760.75
2023-03-11T13:32:51.584Z,100760.00
2023-03-11T13:35:51.615Z,100757.22
2023-03-11T13:38:34.957Z,100765.41
2023-03-11T13:41:03.213Z,100763.44
2023-03-11T13:43:29.720Z,100764.72
2023-03-11T13:46:02.138Z,100761.81
2023-03-11T13:48:40.520Z,100762.56
2023-03-11T13:51:14.351Z,100764.72
2023-03-11T13:53:47.640Z,100768.03
2023-03-11T13:56:18.972Z,100770.34
2023-03-11T13:58:45.341Z,100771.97
2023-03-11T14:01:16.055Z,100774.09
2023-03-11T14:03:44.144Z,100767.19
2023-03-11T14:06:19.874Z,100767.56
2023-03-11T14:08:57.647Z,100765.91
2023-03-11T14:11:29.267Z,100770.41
2023-03-11T14:13:55.709Z,100765.69
2023-03-11T14:16:43.618Z,100783.97
2023-03-11T14:19:17.651Z,100779.72
2023-03-11T14:21:45.514Z,100782.53
2023-03-11T14:24:27.507Z,100767.31
2023-03-11T14:26:56.041Z,100783.34
2023-03-11T14:29:32.607Z,100784.19
2023-03-11T14:31:59.286Z,100777.03
2023-03-11T14:34:28.692Z,100778.50
2023-03-11T14:36:57.282Z,100784.03
2023-03-11T14:39:25.432Z,100779.25
2023-03-11T14:41:55.077Z,100778.09
2023-03-11T14:44:22.535Z,100776.47
2023-03-11T14:46:49.950Z,100784.34
2023-03-11T14:49:20.523Z,100786.44
2023-03-11T14:51:55.748Z,100778.84
2023-03-11T14:54:24.715Z,100789.44
2023-03-11T14:57:02.261Z,100788.72
2023-03-11T14:59:32.227Z,100785.66
2023-03-11T15:02:23.700Z,100790.09
2023-03-11T15:04:50.563Z,100784.44
2023-03-11T15:07:20.073Z,100778.44
2023-03-11T15:09:47.034Z,100775.47
2023-03-11T15:12:34.659Z,100781.91
2023-03-11T15:15:01.348Z,100790.41
2023-03-11T15:17:42.826Z,100772.88
2023-03-11T15:20:34.091Z,100780.41
2023-03-11T15:23:05.912Z,100777.06
2023-03-11T15:25:34.572Z,100767.56
2023-03-11T15:28:20.098Z,100767.06
2023-03-11T15:30:46.619Z,100769.50
2023-03-11T15:33:33.102Z,100765.41
2023-03-11T15:35:59.578Z,100771.34
2023-03-11T15:38:28.419Z,100774.34
2023-03-11T15:41:01.017Z,100773.13
2023-03-11T15:43:30.154Z,100775.41
2023-03-11T15:45:58.126Z,100764.31
2023-03-11T15:48:24.766Z,100771.00
2023-03-11T15:50:54.507Z,100774.91
2023-03-11T15:53:22.996Z,100775.09
2023-03-11T15:55:49.633Z,100780.53
2023-03-11T15:58:17.416Z,100777.13
2023-03-11T16:00:52.991Z,100793.81
2023-03-11T16:03:19.814Z,100785.53
2023-03-11T16:05:46.833Z,100788.06
2023-03-11T16:08:13.454Z,100782.00
2023-03-11T16:10:40.058Z,100783.41
2023-03-11T16:13:06.500Z,100786.50
2023-03-11T16:15:35.352Z,100782.69
2023-03-11T16:18:04.772Z,100795.16
2023-03-11T16:20:39.139Z,100787.16
2023-03-11T16:23:07.944Z,100787.28
2023-03-11T16:25:36.990Z,100785.81
2023-03-11T16:28:04.173Z,100796.47
2023-03-11T16:30:32.752Z,100790.47
2023-03-11T16:32:59.393Z,100801.84
2023-03-11T16:35:26.696Z,100792.75
2023-03-11T16:37:53.965Z,100801.06
2023-03-11T16:40:25.156Z,100796.94
2023-03-11T16:42:54.993Z,100807.13
2023-03-11T16:45:21.461Z,100797.28
2023-03-11T16:47:47.814Z,100806.38
2023-03-11T16:50:14.275Z,100799.53
2023-03-11T16:52:40.776Z,100804.84
2023-03-11T16:55:07.747Z,100810.88
2023-03-11T16:57:34.188Z,100813.56
2023-03-11T17:00:00.700Z,100817.66
2023-03-11T17:02:27.168Z,100811.63
2023-03-11T17:04:53.650Z,100811.59
2023-03-11T17:07:20.140Z,100812.41
2023-03-11T17:09:46.532Z,100809.41
2023-03-11T17:12:15.796Z,100806.34
2023-03-11T17:14:42.347Z,100807.47
2023-03-11T17:17:08.752Z,100806.34
2023-03-11T17:19:35.110Z,100813.94
2023-03-11T17:22:01.503Z,100823.78
2023-03-11T17:24:28.867Z,100821.50
2023-03-11T17:26:55.276Z,100826.44
2023-03-11T17:29:21.887Z,100828.72
2023-03-11T17:31:48.494Z,100829.44
2023-03-11T17:34:14.945Z,100838.16
2023-03-11T17:36:41.419Z,100826.81
2023-03-11T17:39:07.934Z,100826.03
2023-03-11T17:41:34.857Z,100832.84
2023-03-11T17:44:01.346Z,100838.19
2023-03-11T17:46:27.771Z,100843.09
2023-03-11T17:48:54.438Z,100866.81
2023-03-11T17:51:25.924Z,100884.25
2023-03-11T17:53:54.595Z,100878.03
2023-03-11T17:56:21.703Z,100893.88
2023-03-11T17:58:48.940Z,100895.59
2023-03-11T18:01:20.555Z,100902.75
2023-03-11T18:03:47.738Z,100905.00
2023-03-11T18:06:14.527Z,100916.56
2023-03-11T18:08:41.326Z,100906.28
2023-03-11T18:11:10.396Z,100919.78
2023-03-11T18:13:37.595Z,100919.41
2023-03-11T18:16:12.299Z,100914.59
2023-03-11T18:18:39.528Z,100915.47
2023-03-11T18:21:08.908Z,100910.31
2023-03-11T18:23:35.648Z,100899.56
2023-03-11T18:26:04.170Z,100890.19
2023-03-11T18:28:30.996Z,100891.44
2023-03-11T18:30:59.105Z,100883.84
2023-03-11T18:33:25.520Z,100885.53
2023-03-11T18:35:53.632Z,100884.81
2023-03-11T18:38:20.081Z,100881.47
2023-03-11T18:40:46.486Z,100879.94
2023-03-11T18:43:14.318Z,100877.94
2023-03-11T18:45:40.900Z,100882.31
2023-03-11T18:48:07.386Z,100885.16
2023-03-11T18:50:33.791Z,100881.28
2023-03-11T18:53:00.292Z,100887.81
2023-03-11T18:55:26.707Z,100894.06
2023-03-11T18:57:53.216Z,100894.88
2023-03-11T19:00:23.454Z,100892.22
2023-03-11T19:02:51.797Z,100904.63
2023-03-11T19:05:18.220Z,100904.66
2023-03-11T19:07:44.640Z,100902.50
2023-03-11T19:10:12.204Z,100891.94
2023-03-11T19:12:39.956Z,100888.13
2023-03-11T19:15:07.095Z,100896.78
2023-03-11T19:17:33.472Z,100889.69
2023-03-11T19:19:59.872Z,100895.63
2023-03-11T19:22:26.284Z,100891.69
2023-03-11T19:24:55.864Z,100889.38
2023-03-11T19:27:22.236Z,100891.72
2023-03-11T19:29:48.631Z,100894.59
2023-03-11T19:32:15.039Z,100890.34
2023-03-11T19:34:42.454Z,100889.88
2023-03-11T19:37:08.829Z,100894.09
2023-03-11T19:39:35.248Z,100900.81
2023-03-11T19:42:01.651Z,100886.69
2023-03-11T19:44:28.078Z,100881.78
2023-03-11T19:46:54.488Z,100885.75
2023-03-11T19:49:21.897Z,100878.75
2023-03-11T19:51:50.510Z,100891.19
2023-03-11T19:54:17.896Z,100897.69
2023-03-11T19:56:44.458Z,100899.59
2023-03-11T19:59:10.848Z,100910.03
2023-03-11T20:01:37.262Z,100901.47
2023-03-11T20:04:04.338Z,100904.78
2023-03-11T20:06:30.832Z,100908.09
2023-03-11T20:08:57.388Z,100902.31
2023-03-11T20:11:23.939Z,100904.66
2023-03-11T20:13:50.303Z,100902.88
2023-03-11T20:16:19.145Z,100915.31
2023-03-11T20:18:49.824Z,100903.06
2023-03-11T20:21:16.279Z,100905.16
2023-03-11T20:23:42.740Z,100906.63
2023-03-11T20:26:14.515Z,100902.34
2023-03-11T20:28:41.180Z,100912.16
2023-03-11T20:31:09.102Z,100909.53
2023-03-11T20:33:37.308Z,100905.50
2023-03-11T20:36:05.771Z,100907.22
2023-03-11T20:38:32.396Z,100912.59
2023-03-11T20:40:58.820Z,100906.63
2023-03-11T20:43:25.349Z,100899.22
2023-03-11T20:45:51.787Z,100905.00
2023-03-11T20:48:18.235Z,100913.19
2023-03-11T20:50:44.677Z,100910.91
2023-03-11T20:53:11.115Z,100915.28
2023-03-11T20:55:40.753Z,100913.84
2023-03-11T20:58:07.859Z,100906.25
2023-03-11T21:00:34.689Z,100916.84
2023-03-11T21:03:01.176Z,100916.47
2023-03-11T21:05:27.662Z,100903.88
2023-03-11T21:07:54.982Z,100916.63
2023-03-11T21:10:21.491Z,100912.56
2023-03-11T21:12:47.953Z,100912.00
2023-03-11T21:15:14.348Z,100916.75
2023-03-11T21:17:40.833Z,100912.00
2023-03-11T21:20:07.497Z,100917.00
2023-03-11T21:22:34.066Z,100921.66
2023-03-11T21:25:00.684Z,100918.78
2023-03-11T21:27:27.439Z,100923.09
2023-03-11T21:29:54.941Z,100923.75
2023-03-11T21:32:22.552Z,100924.53
2023-03-11T21:34:49.130Z,100919.59
2023-03-11T21:37:15.751Z,100930.97
2023-03-11T21:39:42.458Z,100923.97
2023-03-11T21:42:08.979Z,100928.00
2023-03-11T21:44:35.438Z,100926.28
2023-03-11T21:47:01.965Z,100925.28
2023-03-11T21:49:28.618Z,100927.69
2023-03-11T21:51:55.030Z,100932.44
2023-03-11T21:54:21.484Z,100925.50
2023-03-11T21:56:47.854Z,100928.50
2023-03-11T21:59:14.326Z,100930.97
2023-03-11T22:01:40.856Z,100927.03
2023-03-11T22:04:07.477Z,100927.81
2023-03-11T22:06:34.038Z,100931.16
2023-03-11T22:09:01.391Z,100931.03
2023-03-11T22:11:28.466Z,100931.50
2023-03-11T22:13:57.298Z,100929.03
2023-03-11T22:16:24.432Z,100932.19
2023-03-11T22:18:51.454Z,100929.69
2023-03-11T22:21:18.649Z,100931.16
2023-03-11T22:23:45.150Z,100938.06
2023-03-11T22:26:11.566Z,100930.97
2023-03-11T22:28:38.009Z,100932.44
2023-03-11T22:31:09.313Z,100921.59
2023-03-11T22:33:35.703Z,100927.94
2023-03-11T22:36:04.329Z,100928.41
2023-03-11T22:38:32.142Z,100936.13
2023-03-11T22:41:00.285Z,100926.91
2023-03-11T22:43:27.302Z,100934.53
2023-03-11T22:45:53.706Z,100933.56
2023-03-11T22:48:20.129Z,100935.81
2023-03-11T22:50:47.037Z,100941.84
2023-03-11T22:53:13.737Z,100947.81
2023-03-11T22:55:41.229Z,100945.63
2023-03-11T22:58:08.102Z,100944.38
2023-03-11T23:00:34.731Z,100960.59
2023-03-11T23:03:01.170Z,100953.25
2023-03-11T23:05:27.842Z,100959.00
2023-03-11T23:07:54.238Z,100955.13
2023-03-11T23:10:21.435Z,100955.50
2023-03-11T23:12:48.241Z,100955.91
2023-03-11T23:15:17.090Z,100954.78
2023-03-11T23:17:43.548Z,100954.50
2023-03-11T23:20:13.236Z,100954.75
2023-03-11T23:22:41.285Z,100961.09
2023-03-11T23:25:10.947Z,100960.38
2023-03-11T23:27:37.374Z,100954.69
2023-03-11T23:30:04.639Z,100959.44
2023-03-11T23:32:31.106Z,100964.47
2023-03-11T23:34:57.494Z,100966.72
2023-03-11T23:37:23.876Z,100961.03
2023-03-11T23:39:50.325Z,100960.50
2023-03-11T23:42:25.412Z,100966.66
2023-03-11T23:44:52.750Z,100958.22
2023-03-11T23:47:19.164Z,100963.34
2023-03-11T23:49:45.564Z,100964.09
2023-03-11T23:52:11.929Z,100958.06
2023-03-11T23:54:38.290Z,100958.78
2023-03-11T23:57:04.680Z,100955.03
2023-03-11T23:59:31.143Z,100949.66
